createdAt,value
2017-10-02T00:00:16.601Z,2.77
2017-10-02T00:02:19.272Z,3.43
2017-10-02T00:04:21.934Z,2.60
2017-10-02T00:06:24.709Z,3.03
2017-10-02T00:08:27.373Z,2.63
2017-10-02T00:10:30.356Z,3.30
2017-10-02T00:12:33.071Z,2.90
2017-10-02T00:14:35.760Z,2.90
2017-10-02T00:16:38.488Z,3.00
2017-10-02T00:18:41.154Z,3.13
2017-10-02T00:20:43.918Z,2.70
2017-10-02T00:22:47.413Z,2.90
2017-10-02T00:24:50.821Z,2.53
2017-10-02T00:26:53.501Z,2.50
2017-10-02T00:28:56.136Z,2.67
2017-10-02T00:30:58.854Z,2.70
2017-10-02T00:33:01.791Z,2.47
2017-10-02T00:35:04.505Z,4.23
2017-10-02T00:37:07.321Z,2.53
2017-10-02T00:39:09.985Z,2.60
2017-10-02T00:41:12.754Z,3.53
2017-10-02T00:43:15.531Z,2.67
2017-10-02T00:45:18.299Z,2.67
2017-10-02T00:47:20.964Z,2.80
2017-10-02T00:49:23.808Z,2.77
2017-10-02T00:51:26.508Z,2.07
2017-10-02T00:53:30.070Z,2.17
2017-10-02T00:55:32.847Z,2.17
2017-10-02T00:57:35.494Z,2.60
2017-10-02T00:59:38.293Z,2.33
2017-10-02T01:01:41.070Z,2.20
2017-10-02T01:03:43.783Z,2.50
2017-10-02T01:05:46.421Z,1.97
2017-10-02T01:07:49.120Z,2.20
2017-10-02T01:09:51.856Z,2.00
2017-10-02T01:11:54.532Z,1.90
2017-10-02T01:13:57.238Z,2.27
2017-10-02T01:15:59.995Z,1.73
2017-10-02T01:18:02.660Z,2.07
2017-10-02T01:20:05.350Z,2.73
2017-10-02T01:22:08.013Z,2.13
2017-10-02T01:24:10.674Z,2.03
2017-10-02T01:26:13.396Z,2.40
2017-10-02T01:28:16.054Z,2.10
2017-10-02T01:30:18.821Z,2.57
2017-10-02T01:32:21.753Z,2.13
2017-10-02T01:34:24.582Z,2.30
2017-10-02T01:36:27.466Z,2.33
2017-10-02T01:38:30.189Z,2.20
2017-10-02T01:40:32.843Z,2.30
2017-10-02T01:42:35.661Z,2.00
2017-10-02T01:44:38.374Z,2.23
2017-10-02T01:46:41.051Z,2.37
2017-10-02T01:48:44.040Z,2.27
2017-10-02T01:50:46.813Z,2.13
2017-10-02T01:52:49.510Z,2.70
2017-10-02T01:54:52.218Z,2.80
2017-10-02T01:56:54.893Z,3.00
2017-10-02T01:58:58.337Z,2.20
2017-10-02T02:01:01.056Z,2.50
2017-10-02T02:03:03.733Z,2.07
2017-10-02T02:05:06.518Z,2.17
2017-10-02T02:07:09.160Z,2.10
2017-10-02T02:09:12.069Z,1.87
2017-10-02T02:11:14.765Z,2.17
2017-10-02T02:13:18.168Z,1.90
2017-10-02T02:15:21.614Z,2.40
2017-10-02T02:17:24.257Z,2.13
2017-10-02T02:19:27.023Z,2.30
2017-10-02T02:21:29.721Z,2.40
2017-10-02T02:23:32.370Z,2.17
2017-10-02T02:25:35.800Z,2.10
2017-10-02T02:27:38.470Z,2.23
2017-10-02T02:29:41.244Z,2.13
2017-10-02T02:31:44.216Z,2.67
2017-10-02T02:33:46.877Z,2.03
2017-10-02T02:35:50.357Z,2.77
2017-10-02T02:37:53.010Z,2.20
2017-10-02T02:39:55.762Z,2.80
2017-10-02T02:41:58.447Z,2.27
2017-10-02T02:44:01.117Z,2.80
2017-10-02T02:46:04.079Z,2.63
2017-10-02T02:48:06.735Z,2.73
2017-10-02T02:50:10.226Z,2.57
2017-10-02T02:52:13.700Z,2.87
2017-10-02T02:54:16.427Z,2.43
2017-10-02T02:56:19.215Z,2.17
2017-10-02T02:58:21.887Z,2.33
2017-10-02T03:00:24.567Z,2.73
2017-10-02T03:02:27.467Z,2.60
2017-10-02T03:04:30.115Z,2.70
2017-10-02T03:06:32.918Z,3.00
2017-10-02T03:08:35.592Z,2.57
2017-10-02T03:10:38.334Z,2.63
2017-10-02T03:12:41.074Z,2.20
2017-10-02T03:14:43.732Z,2.20
2017-10-02T03:16:46.395Z,2.40
2017-10-02T03:18:49.114Z,2.73
2017-10-02T03:20:52.545Z,2.23
2017-10-02T03:22:55.286Z,2.90
2017-10-02T03:24:57.951Z,2.30
2017-10-02T03:27:00.632Z,2.40
2017-10-02T03:29:03.329Z,2.80
2017-10-02T03:31:06.835Z,2.53
2017-10-02T03:33:09.792Z,2.47
2017-10-02T03:35:12.507Z,2.30
2017-10-02T03:37:15.182Z,2.63
2017-10-02T03:39:17.921Z,2.20
2017-10-02T03:41:20.575Z,2.50
2017-10-02T03:43:23.291Z,2.87
2017-10-02T03:45:26.766Z,2.90
2017-10-02T03:47:29.489Z,2.63
2017-10-02T03:49:32.202Z,2.57
2017-10-02T03:51:34.881Z,2.60
2017-10-02T03:53:37.581Z,2.77
2017-10-02T03:55:41.032Z,2.63
2017-10-02T03:57:43.761Z,3.10
2017-10-02T03:59:47.245Z,3.10
2017-10-02T04:01:49.929Z,2.77
2017-10-02T04:03:53.434Z,2.53
2017-10-02T04:05:56.850Z,2.60
2017-10-02T04:07:59.568Z,2.60
2017-10-02T04:10:02.266Z,2.30
2017-10-02T04:12:05.076Z,2.50
2017-10-02T04:14:07.799Z,2.10
2017-10-02T04:16:10.477Z,2.30
2017-10-02T04:18:13.189Z,2.10
2017-10-02T04:20:16.719Z,2.70
2017-10-02T04:22:19.374Z,2.30
2017-10-02T04:24:22.016Z,3.03
2017-10-02T04:26:25.456Z,2.50
2017-10-02T04:28:28.131Z,2.30
2017-10-02T04:30:31.029Z,2.40
2017-10-02T04:32:33.794Z,2.40
2017-10-02T04:34:36.610Z,2.37
2017-10-02T04:36:39.355Z,2.17
2017-10-02T04:38:42.047Z,2.40
2017-10-02T04:40:44.818Z,2.00
2017-10-02T04:42:47.478Z,2.13
2017-10-02T04:44:50.259Z,2.33
2017-10-02T04:46:53.306Z,1.97
2017-10-02T04:48:56.758Z,2.00
2017-10-02T04:50:59.682Z,1.97
2017-10-02T04:53:03.214Z,1.70
2017-10-02T04:55:05.993Z,2.17
2017-10-02T04:57:08.763Z,2.50
2017-10-02T04:59:11.462Z,2.00
2017-10-02T05:01:14.230Z,2.00
2017-10-02T05:03:16.929Z,2.20
2017-10-02T05:05:19.570Z,1.77
2017-10-02T05:07:22.420Z,2.00
2017-10-02T05:09:25.954Z,1.97
2017-10-02T05:11:28.725Z,2.13
2017-10-02T05:13:31.382Z,2.10
2017-10-02T05:15:34.957Z,2.03
2017-10-02T05:17:37.697Z,1.97
2017-10-02T05:19:40.364Z,2.07
2017-10-02T05:21:43.201Z,1.73
2017-10-02T05:23:46.633Z,1.87
2017-10-02T05:25:49.516Z,2.00
2017-10-02T05:27:52.421Z,2.03
2017-10-02T05:29:55.136Z,2.23
2017-10-02T05:31:58.568Z,2.00
2017-10-02T05:34:01.241Z,2.20
2017-10-02T05:36:04.022Z,2.17
2017-10-02T05:38:06.699Z,2.50
2017-10-02T05:40:09.477Z,2.10
2017-10-02T05:42:12.300Z,2.50
2017-10-02T05:44:15.035Z,2.93
2017-10-02T05:46:17.697Z,2.40
2017-10-02T05:48:20.442Z,2.57
2017-10-02T05:50:23.368Z,2.50
2017-10-02T05:52:26.252Z,2.33
2017-10-02T05:54:28.951Z,3.53
2017-10-02T05:56:31.743Z,2.70
2017-10-02T05:58:34.688Z,2.50
2017-10-02T06:00:37.373Z,2.87
2017-10-02T06:02:40.186Z,3.60
2017-10-02T06:04:42.921Z,3.20
2017-10-02T06:06:45.568Z,2.97
2017-10-02T06:08:49.108Z,3.40
2017-10-02T06:10:51.780Z,3.33
2017-10-02T06:12:54.443Z,2.70
2017-10-02T06:14:57.200Z,2.93
2017-10-02T06:17:00.629Z,3.00
2017-10-02T06:19:03.387Z,2.80
2017-10-02T06:21:06.116Z,3.90
2017-10-02T06:23:08.779Z,3.13
2017-10-02T06:25:11.529Z,3.50
2017-10-02T06:27:14.251Z,2.97
2017-10-02T06:29:16.979Z,3.20
2017-10-02T06:31:19.780Z,3.20
2017-10-02T06:33:22.759Z,3.23
2017-10-02T06:35:25.460Z,2.70
2017-10-02T06:37:28.146Z,3.10
2017-10-02T06:39:30.865Z,2.83
2017-10-02T06:41:33.684Z,2.70
2017-10-02T06:43:36.359Z,2.90
2017-10-02T06:45:39.051Z,2.73
2017-10-02T06:47:41.820Z,2.60
2017-10-02T06:49:44.482Z,2.90
2017-10-02T06:51:47.225Z,3.10
2017-10-02T06:53:49.944Z,3.20
2017-10-02T06:55:52.597Z,3.00
2017-10-02T06:57:55.358Z,3.40
2017-10-02T06:59:58.045Z,3.00
2017-10-02T07:02:00.777Z,3.20
2017-10-02T07:04:03.623Z,3.00
2017-10-02T07:06:06.259Z,3.17
2017-10-02T07:08:09.055Z,3.37
2017-10-02T07:10:11.835Z,3.07
2017-10-02T07:12:14.493Z,3.10
2017-10-02T07:14:17.967Z,3.13
2017-10-02T07:16:21.406Z,4.80
2017-10-02T07:18:24.091Z,3.60
2017-10-02T07:20:26.840Z,3.60
2017-10-02T07:22:29.497Z,3.37
2017-10-02T07:24:33.845Z,4.00
2017-10-02T07:26:36.622Z,3.43
2017-10-02T07:28:39.265Z,3.87
2017-10-02T07:30:41.912Z,4.17
2017-10-02T07:32:44.596Z,3.47
2017-10-02T07:34:47.256Z,3.57
2017-10-02T07:36:49.943Z,3.60
2017-10-02T07:38:52.618Z,4.27
2017-10-02T07:40:55.314Z,4.30
2017-10-02T07:42:57.983Z,4.97
2017-10-02T07:45:00.720Z,4.30
2017-10-02T07:47:03.430Z,4.33
2017-10-02T07:49:06.090Z,4.20
2017-10-02T07:51:08.877Z,4.67
2017-10-02T07:53:11.523Z,4.30
2017-10-02T07:55:14.160Z,4.90
2017-10-02T07:57:17.688Z,5.27
2017-10-02T07:59:20.409Z,4.97
2017-10-02T08:01:23.101Z,4.80
2017-10-02T08:03:26.517Z,4.30
2017-10-02T08:05:29.169Z,5.90
2017-10-02T08:07:31.946Z,5.50
2017-10-02T08:09:35.676Z,6.67
2017-10-02T08:11:38.375Z,6.13
2017-10-02T08:13:41.069Z,5.20
2017-10-02T08:15:43.704Z,4.90
2017-10-02T08:17:47.143Z,5.20
2017-10-02T08:19:50.708Z,5.57
2017-10-02T08:21:53.417Z,21.20
2017-10-02T08:23:56.078Z,4.70
2017-10-02T08:25:58.931Z,4.33
2017-10-02T08:28:01.773Z,4.33
2017-10-02T08:30:05.522Z,11.90
2017-10-02T08:32:08.214Z,6.17
2017-10-02T08:34:10.976Z,4.93
2017-10-02T08:36:13.710Z,5.30
2017-10-02T08:38:17.147Z,5.10
2017-10-02T08:40:19.788Z,4.90
2017-10-02T08:42:23.348Z,6.40
2017-10-02T08:44:26.022Z,5.97
2017-10-02T08:46:28.865Z,5.07
2017-10-02T08:48:31.764Z,5.63
2017-10-02T08:50:34.415Z,4.67
2017-10-02T08:52:37.867Z,5.17
2017-10-02T08:54:40.552Z,4.30
2017-10-02T08:56:44.840Z,4.90
2017-10-02T08:58:47.515Z,4.90
2017-10-02T09:00:50.210Z,5.30
2017-10-02T09:02:53.683Z,5.20
2017-10-02T09:04:56.326Z,4.50
2017-10-02T09:06:59.117Z,4.03
2017-10-02T09:09:01.812Z,4.80
2017-10-02T09:11:04.476Z,5.00
2017-10-02T09:13:07.353Z,4.40
2017-10-02T09:15:10.236Z,4.30
2017-10-02T09:17:13.011Z,4.43
2017-10-02T09:19:15.816Z,4.93
2017-10-02T09:21:18.507Z,5.30
2017-10-02T09:23:21.220Z,5.17
2017-10-02T09:25:24.663Z,4.53
2017-10-02T09:27:27.375Z,4.40
2017-10-02T09:29:30.092Z,10.33
2017-10-02T09:31:32.779Z,4.47
2017-10-02T09:33:35.444Z,4.33
2017-10-02T09:35:38.121Z,4.60
2017-10-02T09:37:40.930Z,4.50
2017-10-02T09:39:43.639Z,4.80
2017-10-02T09:41:46.303Z,4.87
2017-10-02T09:43:49.009Z,5.43
2017-10-02T09:45:52.437Z,5.37
2017-10-02T09:47:55.103Z,5.47
2017-10-02T09:49:57.851Z,5.17
2017-10-02T09:52:00.531Z,5.43
2017-10-02T09:54:03.954Z,8.43
2017-10-02T09:56:06.666Z,6.00
2017-10-02T09:58:09.347Z,5.73
2017-10-02T10:00:12.181Z,5.37
2017-10-02T10:02:15.016Z,5.93
2017-10-02T10:04:17.735Z,6.10
2017-10-02T10:06:20.517Z,4.70
2017-10-02T10:08:23.193Z,5.33
2017-10-02T10:10:25.940Z,6.70
2017-10-02T10:12:29.493Z,6.47
2017-10-02T10:14:32.458Z,6.83
2017-10-02T10:16:35.197Z,6.97
2017-10-02T10:18:38.644Z,6.70
2017-10-02T10:20:42.259Z,7.20
2017-10-02T10:22:44.900Z,6.97
2017-10-02T10:24:47.544Z,6.63
2017-10-02T10:26:51.098Z,6.97
2017-10-02T10:28:53.834Z,6.70
2017-10-02T10:30:56.671Z,7.30
2017-10-02T10:32:59.463Z,7.27
2017-10-02T10:35:02.105Z,7.30
2017-10-02T10:37:04.956Z,8.00
2017-10-02T10:39:07.643Z,6.63
2017-10-02T10:41:10.339Z,5.60
2017-10-02T10:43:13.235Z,7.17
2017-10-02T10:45:15.923Z,5.70
2017-10-02T10:47:18.597Z,7.13
2017-10-02T10:49:21.237Z,6.10
2017-10-02T10:51:24.054Z,6.80
2017-10-02T10:53:27.889Z,8.00
2017-10-02T10:55:30.584Z,6.20
2017-10-02T10:57:33.357Z,7.20
2017-10-02T10:59:36.048Z,7.40
2017-10-02T11:01:38.883Z,7.60
2017-10-02T11:03:42.368Z,6.90
2017-10-02T11:05:45.015Z,7.60
2017-10-02T11:07:47.768Z,7.70
2017-10-02T11:09:50.586Z,9.10
2017-10-02T11:11:53.240Z,8.30
2017-10-02T11:13:55.950Z,6.27
2017-10-02T11:15:58.919Z,6.73
2017-10-02T11:18:01.573Z,7.60
2017-10-02T11:20:04.512Z,7.33
2017-10-02T11:22:08.054Z,8.13
2017-10-02T11:24:10.800Z,6.80
2017-10-02T11:26:13.473Z,7.90
2017-10-02T11:28:16.135Z,7.10
2017-10-02T11:30:19.563Z,7.93
2017-10-02T11:32:22.267Z,9.80
2017-10-02T11:34:25.052Z,8.87
2017-10-02T11:36:27.707Z,11.57
2017-10-02T11:38:30.451Z,8.17
2017-10-02T11:40:33.874Z,7.80
2017-10-02T11:42:36.531Z,8.30
2017-10-02T11:44:39.314Z,7.97
2017-10-02T11:46:42.044Z,7.80
2017-10-02T11:48:44.708Z,7.07
2017-10-02T11:50:47.458Z,8.13
2017-10-02T11:52:50.144Z,7.53
2017-10-02T11:54:52.967Z,7.50
2017-10-02T11:56:56.468Z,8.20
2017-10-02T11:58:59.895Z,7.97
2017-10-02T12:01:02.578Z,7.90
2017-10-02T12:03:05.282Z,7.23
2017-10-02T12:05:08.723Z,9.40
2017-10-02T12:07:11.365Z,7.77
2017-10-02T12:09:14.063Z,9.17
2017-10-02T12:11:17.555Z,12.57
2017-10-02T12:13:21.183Z,8.40
2017-10-02T12:15:23.965Z,15.53
2017-10-02T12:17:27.438Z,13.87
2017-10-02T12:19:30.165Z,8.83
2017-10-02T12:21:32.961Z,9.90
2017-10-02T12:23:35.666Z,7.20
2017-10-02T12:25:38.420Z,7.60
2017-10-02T12:27:41.875Z,6.70
2017-10-02T12:29:44.555Z,7.97
2017-10-02T12:31:47.415Z,7.23
2017-10-02T12:33:50.207Z,7.80
2017-10-02T12:35:52.922Z,7.77
2017-10-02T12:37:56.391Z,9.00
2017-10-02T12:39:59.083Z,7.67
2017-10-02T12:42:01.873Z,7.73
2017-10-02T12:44:04.554Z,8.60
2017-10-02T12:46:07.298Z,7.60
2017-10-02T12:48:09.964Z,7.80
2017-10-02T12:50:12.622Z,8.40
2017-10-02T12:52:15.332Z,8.43
2017-10-02T12:54:17.991Z,8.30
2017-10-02T12:56:20.713Z,8.03
2017-10-02T12:58:23.604Z,7.33
2017-10-02T13:00:27.136Z,8.10
2017-10-02T13:02:29.812Z,8.00
2017-10-02T13:04:32.490Z,7.40
2017-10-02T13:06:35.182Z,7.27
2017-10-02T13:08:37.894Z,8.47
2017-10-02T13:10:40.574Z,7.90
2017-10-02T13:12:43.217Z,7.77
2017-10-02T13:14:46.104Z,7.93
2017-10-02T13:16:49.672Z,7.40
2017-10-02T13:18:52.363Z,6.60
2017-10-02T13:20:55.010Z,7.50
2017-10-02T13:22:57.698Z,6.60
2017-10-02T13:25:00.407Z,7.20
2017-10-02T13:27:03.060Z,8.30
2017-10-02T13:29:06.906Z,8.37
2017-10-02T13:31:09.560Z,7.40
2017-10-02T13:33:12.230Z,7.17
2017-10-02T13:35:14.975Z,8.53
2017-10-02T13:37:17.643Z,6.80
2017-10-02T13:39:20.313Z,7.83
2017-10-02T13:41:23.768Z,7.13
2017-10-02T13:43:26.610Z,7.50
2017-10-02T13:45:29.409Z,7.53
2017-10-02T13:47:32.861Z,6.90
2017-10-02T13:49:36.513Z,6.50
2017-10-02T13:51:39.924Z,7.03
2017-10-02T13:53:42.655Z,7.60
2017-10-02T13:55:45.327Z,7.00
2017-10-02T13:57:47.983Z,6.50
2017-10-02T13:59:51.613Z,8.20
2017-10-02T14:01:54.260Z,5.83
2017-10-02T14:03:57.717Z,6.70
2017-10-02T14:06:00.506Z,7.10
2017-10-02T14:08:03.165Z,5.47
2017-10-02T14:10:05.866Z,6.03
2017-10-02T14:12:08.521Z,6.23
2017-10-02T14:14:11.196Z,6.60
2017-10-02T14:16:13.923Z,7.30
2017-10-02T14:18:16.634Z,6.93
2017-10-02T14:20:19.384Z,7.40
2017-10-02T14:22:23.101Z,6.53
2017-10-02T14:24:25.771Z,5.90
2017-10-02T14:26:28.491Z,6.80
2017-10-02T14:28:31.172Z,7.20
2017-10-02T14:30:33.906Z,7.67
2017-10-02T14:32:36.660Z,6.80
2017-10-02T14:34:39.384Z,6.20
2017-10-02T14:36:42.127Z,7.63
2017-10-02T14:38:44.801Z,6.30
2017-10-02T14:40:47.485Z,6.30
2017-10-02T14:42:50.956Z,5.97
2017-10-02T14:44:54.364Z,6.40
2017-10-02T14:46:57.063Z,5.87
2017-10-02T14:48:59.704Z,6.63
2017-10-02T14:51:02.478Z,6.23
2017-10-02T14:53:06.012Z,6.20
2017-10-02T14:55:08.682Z,6.70
2017-10-02T14:57:11.453Z,6.97
2017-10-02T14:59:14.227Z,5.50
2017-10-02T15:01:16.991Z,5.97
2017-10-02T15:03:19.677Z,6.00
2017-10-02T15:05:22.379Z,6.73
2017-10-02T15:07:25.060Z,7.30
2017-10-02T15:09:29.179Z,6.33
2017-10-02T15:11:31.921Z,5.63
2017-10-02T15:13:34.630Z,6.30
2017-10-02T15:15:37.276Z,18.33
2017-10-02T15:17:40.018Z,13.43
2017-10-02T15:19:43.445Z,8.37
2017-10-02T15:21:46.157Z,7.30
2017-10-02T15:23:48.961Z,7.73
2017-10-02T15:25:51.722Z,7.53
2017-10-02T15:27:54.412Z,6.37
2017-10-02T15:29:57.899Z,6.47
2017-10-02T15:32:00.565Z,6.60
2017-10-02T15:34:03.240Z,8.30
2017-10-02T15:36:05.941Z,7.67
2017-10-02T15:38:08.681Z,6.57
2017-10-02T15:40:11.355Z,6.27
2017-10-02T15:42:14.037Z,6.93
2017-10-02T15:44:16.783Z,6.20
2017-10-02T15:46:19.452Z,6.07
2017-10-02T15:48:22.186Z,6.90
2017-10-02T15:50:24.850Z,6.60
2017-10-02T15:52:27.515Z,6.70
2017-10-02T15:54:30.332Z,6.60
2017-10-02T15:56:33.019Z,6.87
2017-10-02T15:58:36.472Z,6.30
2017-10-02T16:00:39.145Z,7.07
2017-10-02T16:02:41.877Z,6.57
2017-10-02T16:04:45.349Z,6.67
2017-10-02T16:06:48.094Z,6.50
2017-10-02T16:08:50.738Z,6.70
2017-10-02T16:10:53.441Z,8.33
2017-10-02T16:12:56.113Z,9.13
2017-10-02T16:14:58.874Z,7.20
2017-10-02T16:17:01.527Z,7.27
2017-10-02T16:19:04.961Z,6.73
2017-10-02T16:21:07.825Z,6.70
2017-10-02T16:23:10.481Z,7.20
2017-10-02T16:25:14.024Z,7.17
2017-10-02T16:27:16.776Z,5.90
2017-10-02T16:29:19.450Z,7.20
2017-10-02T16:31:22.234Z,6.43
2017-10-02T16:33:24.895Z,6.50
2017-10-02T16:35:27.564Z,7.30
2017-10-02T16:37:30.251Z,7.67
2017-10-02T16:39:32.912Z,6.90
2017-10-02T16:41:36.357Z,7.03
2017-10-02T16:43:39.129Z,6.60
2017-10-02T16:45:41.886Z,7.40
2017-10-02T16:47:44.679Z,7.10
2017-10-02T16:49:47.349Z,6.47
2017-10-02T16:51:50.227Z,7.17
2017-10-02T16:53:52.897Z,7.20
2017-10-02T16:55:55.579Z,6.00
2017-10-02T16:57:58.453Z,5.70
2017-10-02T17:00:01.168Z,7.40
2017-10-02T17:02:04.037Z,7.17
2017-10-02T17:04:06.771Z,6.10
2017-10-02T17:06:09.588Z,6.10
2017-10-02T17:08:12.704Z,5.60
2017-10-02T17:10:15.379Z,7.07
2017-10-02T17:12:19.647Z,7.03
2017-10-02T17:14:22.469Z,6.37
2017-10-02T17:16:25.884Z,6.13
2017-10-02T17:18:28.801Z,7.87
2017-10-02T17:20:31.485Z,6.80
2017-10-02T17:22:34.252Z,7.13
2017-10-02T17:24:36.936Z,7.10
2017-10-02T17:26:39.635Z,7.07
2017-10-02T17:28:42.705Z,7.23
2017-10-02T17:30:45.475Z,7.00
2017-10-02T17:32:48.169Z,6.17
2017-10-02T17:34:50.914Z,7.60
2017-10-02T17:36:53.590Z,7.20
2017-10-02T17:38:56.485Z,7.67
2017-10-02T17:40:59.180Z,8.13
2017-10-02T17:43:01.836Z,5.87
2017-10-02T17:45:04.714Z,6.47
2017-10-02T17:47:07.366Z,6.67
2017-10-02T17:49:10.862Z,7.03
2017-10-02T17:51:14.310Z,7.23
2017-10-02T17:53:17.085Z,7.10
2017-10-02T17:55:20.041Z,5.87
2017-10-02T17:57:22.716Z,6.10
2017-10-02T17:59:25.416Z,6.90
2017-10-02T18:01:28.204Z,7.63
2017-10-02T18:03:30.880Z,7.13
2017-10-02T18:05:33.572Z,7.57
2017-10-02T18:07:36.221Z,7.40
2017-10-02T18:09:38.895Z,6.87
2017-10-02T18:11:41.652Z,7.07
2017-10-02T18:13:44.311Z,5.73
2017-10-02T18:15:47.911Z,7.50
2017-10-02T18:17:50.566Z,7.10
2017-10-02T18:19:53.282Z,6.30
2017-10-02T18:21:56.057Z,6.53
2017-10-02T18:23:58.706Z,5.93
2017-10-02T18:26:02.453Z,7.30
2017-10-02T18:28:05.186Z,6.67
2017-10-02T18:30:10.974Z,6.30
2017-10-02T18:32:15.175Z,7.33
2017-10-02T18:34:17.884Z,6.40
2017-10-02T18:36:20.536Z,7.27
2017-10-02T18:38:23.252Z,6.07
2017-10-02T18:40:25.942Z,6.23
2017-10-02T18:42:29.368Z,6.20
2017-10-02T18:44:33.446Z,6.60
2017-10-02T18:46:38.112Z,6.90
2017-10-02T18:48:40.762Z,5.77
2017-10-02T18:50:44.216Z,6.10
2017-10-02T18:52:46.953Z,6.80
2017-10-02T18:54:49.792Z,6.83
2017-10-02T18:56:52.476Z,5.80
2017-10-02T18:58:55.883Z,6.07
2017-10-02T19:00:59.284Z,5.87
2017-10-02T19:03:01.967Z,6.17
2017-10-02T19:05:04.613Z,6.43
2017-10-02T19:07:08.167Z,7.30
2017-10-02T19:09:10.840Z,7.73
2017-10-02T19:11:13.477Z,6.87
2017-10-02T19:13:16.882Z,7.30
2017-10-02T19:15:19.572Z,7.47
2017-10-02T19:17:23.927Z,6.97
2017-10-02T19:19:27.348Z,7.10
2017-10-02T19:21:30.843Z,7.40
2017-10-02T19:23:34.367Z,6.43
2017-10-02T19:25:37.138Z,6.30
2017-10-02T19:27:39.813Z,6.90
2017-10-02T19:29:42.487Z,6.57
2017-10-02T19:31:45.135Z,7.20
2017-10-02T19:33:48.576Z,6.83
2017-10-02T19:35:51.280Z,6.43
2017-10-02T19:37:54.006Z,8.73
2017-10-02T19:39:56.690Z,7.17
2017-10-02T19:41:59.803Z,7.30
2017-10-02T19:44:02.445Z,7.13
2017-10-02T19:46:05.306Z,6.83
2017-10-02T19:48:08.882Z,7.70
2017-10-02T19:50:11.555Z,6.80
2017-10-02T19:52:14.262Z,7.27
2017-10-02T19:54:17.801Z,6.83
2017-10-02T19:56:20.665Z,6.90
2017-10-02T19:58:23.353Z,6.30
2017-10-02T20:00:26.059Z,6.03
2017-10-02T20:02:28.752Z,6.00
2017-10-02T20:04:32.973Z,5.83
2017-10-02T20:06:36.426Z,6.80
2017-10-02T20:08:39.078Z,7.00
2017-10-02T20:10:41.769Z,6.73
2017-10-02T20:12:44.566Z,6.60
2017-10-02T20:14:47.228Z,7.43
2017-10-02T20:16:49.985Z,6.97
2017-10-02T20:18:52.955Z,7.00
2017-10-02T20:20:55.600Z,6.80
2017-10-02T20:22:59.134Z,7.30
2017-10-02T20:25:01.832Z,7.10
2017-10-02T20:27:04.699Z,9.70
2017-10-02T20:29:08.420Z,6.50
2017-10-02T20:31:11.282Z,7.50
2017-10-02T20:33:14.032Z,7.70
2017-10-02T20:35:17.504Z,7.20
2017-10-02T20:37:20.216Z,7.40
2017-10-02T20:39:22.856Z,6.73
2017-10-02T20:41:25.601Z,7.03
2017-10-02T20:43:28.237Z,6.73
2017-10-02T20:45:31.663Z,7.93
2017-10-02T20:47:34.533Z,8.87
2017-10-02T20:49:37.183Z,9.57
2017-10-02T20:51:39.856Z,10.60
2017-10-02T20:53:43.422Z,11.00
2017-10-02T20:55:46.260Z,9.40
2017-10-02T20:57:49.145Z,9.57
2017-10-02T20:59:52.047Z,13.17
2017-10-02T21:01:54.799Z,10.53
2017-10-02T21:03:57.594Z,10.80
2017-10-02T21:06:00.286Z,13.53
2017-10-02T21:08:03.093Z,14.93
2017-10-02T21:10:06.590Z,13.70
2017-10-02T21:12:10.034Z,17.00
2017-10-02T21:14:12.741Z,14.70
2017-10-02T21:16:15.388Z,13.00
2017-10-02T21:18:18.105Z,13.73
2017-10-02T21:20:20.855Z,8.93
2017-10-02T21:22:23.536Z,10.40
2017-10-02T21:24:26.455Z,8.63
2017-10-02T21:26:29.886Z,11.60
2017-10-02T21:28:32.585Z,9.73
2017-10-02T21:30:35.467Z,8.90
2017-10-02T21:32:38.223Z,8.40
2017-10-02T21:34:41.121Z,10.80
2017-10-02T21:36:43.796Z,8.23
2017-10-02T21:38:46.487Z,8.20
2017-10-02T21:40:49.226Z,9.43
2017-10-02T21:42:51.892Z,9.00
2017-10-02T21:44:54.552Z,9.50
2017-10-02T21:46:57.982Z,7.90
2017-10-02T21:49:00.763Z,8.37
2017-10-02T21:51:03.526Z,7.80
2017-10-02T21:53:06.324Z,8.10
2017-10-02T21:55:08.984Z,7.93
2017-10-02T21:57:11.645Z,7.93
2017-10-02T21:59:14.446Z,9.30
2017-10-02T22:01:17.121Z,7.77
2017-10-02T22:03:19.809Z,9.03
2017-10-02T22:05:22.494Z,8.43
2017-10-02T22:07:25.265Z,7.53
2017-10-02T22:09:27.936Z,7.70
2017-10-02T22:11:30.665Z,8.17
2017-10-02T22:13:34.090Z,9.30
2017-10-02T22:15:36.766Z,8.20
2017-10-02T22:17:39.803Z,8.80
2017-10-02T22:19:42.479Z,8.07
2017-10-02T22:21:45.138Z,8.23
2017-10-02T22:23:47.957Z,7.40
2017-10-02T22:25:51.380Z,8.00
2017-10-02T22:27:54.135Z,7.70
2017-10-02T22:29:57.561Z,8.30
2017-10-02T22:32:00.226Z,7.80
2017-10-02T22:34:02.944Z,7.43
2017-10-02T22:36:05.601Z,8.73
2017-10-02T22:38:08.362Z,8.83
2017-10-02T22:40:11.049Z,8.97
2017-10-02T22:42:13.703Z,9.40
2017-10-02T22:44:16.447Z,9.10
2017-10-02T22:46:19.114Z,8.07
2017-10-02T22:48:21.775Z,8.70
2017-10-02T22:50:24.447Z,9.10
2017-10-02T22:52:27.125Z,9.00
2017-10-02T22:54:29.886Z,9.27
2017-10-02T22:56:32.673Z,10.63
2017-10-02T22:58:35.345Z,8.97
2017-10-02T23:00:38.108Z,8.43
2017-10-02T23:02:40.795Z,7.90
2017-10-02T23:04:43.465Z,8.70
2017-10-02T23:06:46.343Z,8.03
2017-10-02T23:08:48.997Z,7.83
2017-10-02T23:10:52.425Z,8.23
2017-10-02T23:12:55.888Z,8.47
2017-10-02T23:14:58.586Z,8.13
2017-10-02T23:17:01.287Z,7.67
2017-10-02T23:19:03.933Z,8.53
2017-10-02T23:21:06.604Z,9.67
2017-10-02T23:23:09.313Z,8.40
2017-10-02T23:25:11.989Z,9.43
2017-10-02T23:27:14.668Z,9.10
2017-10-02T23:29:17.349Z,8.97
2017-10-02T23:31:20.045Z,8.87
2017-10-02T23:33:23.076Z,9.70
2017-10-02T23:35:25.735Z,9.30
2017-10-02T23:37:28.646Z,8.70
2017-10-02T23:39:32.441Z,8.03
2017-10-02T23:41:35.087Z,7.40
2017-10-02T23:43:38.697Z,7.63
2017-10-02T23:45:41.354Z,6.07
2017-10-02T23:47:44.798Z,7.43
2017-10-02T23:49:47.481Z,6.87
2017-10-02T23:51:50.143Z,6.23
2017-10-02T23:53:52.925Z,6.13
2017-10-02T23:55:55.619Z,8.10
2017-10-02T23:57:58.343Z,8.23
